Time;durP1;ratioP1;P1;durP2;ratioP2;P2;SDS_P1;SDS_P2;PMS_P1;PMS_P2;Temp;Humidity;BMP_temperature;BMP_pressure;BME280_temperature;BME280_humidity;BME280_pressure;Samples;Min_cycle;Max_cycle;Signal;HPM_P1;HPM_P2
2023/05/21 00:01:47;;;;;;;7.20;4.45;;;;;;;;;;5034610;28;20125;-69
2023/05/21 00:04:14;;;;;;;6.35;4.07;;;;;;;;;;5034311;28;20136;-69
2023/05/21 00:06:40;;;;;;;8.27;4.35;;;;;;;;;;5035086;28;20072;-69
2023/05/21 00:09:06;;;;;;;8.90;4.15;;;;;;;;;;5017064;28;20085;-69
2023/05/21 00:11:32;;;;;;;7.80;4.38;;;;;;;;;;5016404;28;20058;-69
2023/05/21 00:13:58;;;;;;;8.20;4.30;;;;;;;;;;5034826;28;20560;-69
2023/05/21 00:16:24;;;;;;;8.85;4.20;;;;;;;;;;5034979;28;20085;-69
2023/05/21 00:18:53;;;;;;;7.30;4.25;;;;;;;;;;5034106;28;20049;-69
2023/05/21 00:21:24;;;;;;;9.65;4.40;;;;;;;;;;5032810;28;20050;-69
2023/05/21 00:23:52;;;;;;;7.97;4.60;;;;;;;;;;5034720;28;20045;-69
2023/05/21 00:26:19;;;;;;;8.80;4.65;;;;;;;;;;5034645;28;20144;-69
2023/05/21 00:28:45;;;;;;;9.65;4.15;;;;;;;;;;5034482;28;20401;-70
2023/05/21 00:31:11;;;;;;;8.13;4.20;;;;;;;;;;5034152;28;20056;-69
2023/05/21 00:33:37;;;;;;;7.50;4.57;;;;;;;;;;5034430;28;20037;-69
2023/05/21 00:36:04;;;;;;;8.07;4.40;;;;;;;;;;5016562;28;20045;-69
2023/05/21 00:38:31;;;;;;;11.65;4.80;;;;;;;;;;5016595;28;20045;-69
2023/05/21 00:41:00;;;;;;;7.43;4.32;;;;;;;;;;5033086;28;20042;-70
2023/05/21 00:43:26;;;;;;;8.50;4.20;;;;;;;;;;5034359;28;20049;-70
2023/05/21 00:45:52;;;;;;;6.53;4.32;;;;;;;;;;5015971;28;20048;-69
2023/05/21 00:48:20;;;;;;;7.97;4.60;;;;;;;;;;5015858;28;20080;-69
2023/05/21 00:50:46;;;;;;;7.80;4.40;;;;;;;;;;5033729;28;20065;-69
2023/05/21 00:53:14;;;;;;;6.32;4.43;;;;;;;;;;5033766;28;20056;-69
2023/05/21 00:55:40;;;;;;;6.50;4.22;;;;;;;;;;5033698;28;20443;-69
2023/05/21 00:58:06;;;;;;;7.32;4.25;;;;;;;;;;5033918;28;20453;-70
2023/05/21 01:00:33;;;;;;;7.20;4.47;;;;;;;;;;5033401;28;20045;-69
2023/05/21 01:03:00;;;;;;;6.38;4.10;;;;;;;;;;5031713;28;20048;-69
2023/05/21 01:05:26;;;;;;;8.05;4.53;;;;;;;;;;5032089;28;20112;-69
2023/05/21 01:07:53;;;;;;;6.70;4.57;;;;;;;;;;5033754;28;20052;-69
2023/05/21 01:10:19;;;;;;;6.45;4.10;;;;;;;;;;5015763;28;20049;-69
2023/05/21 01:12:45;;;;;;;9.38;4.78;;;;;;;;;;5033034;28;20050;-69
2023/05/21 01:15:13;;;;;;;6.55;4.50;;;;;;;;;;5014373;28;20045;-69
2023/05/21 01:17:40;;;;;;;9.32;4.80;;;;;;;;;;5030582;28;20172;-70
2023/05/21 01:20:09;;;;;;;8.57;4.57;;;;;;;;;;5033390;28;20057;-70
2023/05/21 01:22:38;;;;;;;7.55;4.57;;;;;;;;;;5033003;28;20124;-70
2023/05/21 01:25:04;;;;;;;8.07;4.47;;;;;;;;;;5033304;28;20053;-70
2023/05/21 01:27:30;;;;;;;7.25;4.70;;;;;;;;;;5015924;28;20463;-69
2023/05/21 01:29:56;;;;;;;9.63;4.85;;;;;;;;;;5033076;28;20056;-69
2023/05/21 01:32:31;;;;;;;9.10;4.65;;;;;;;;;;5032975;28;20482;-70
2023/05/21 01:35:09;;;;;;;8.80;5.43;;;;;;;;;;5033281;28;20133;-70
2023/05/21 01:37:38;;;;;;;10.63;4.97;;;;;;;;;;5033215;28;20129;-70
2023/05/21 01:40:14;;;;;;;8.32;5.03;;;;;;;;;;5032808;28;20117;-69
2023/05/21 01:42:40;;;;;;;;;;;;;;;;;;5033472;28;20045;-69
2023/05/21 01:45:06;;;;;;;;;;;;;;;;;;5033402;28;20016;-70
2023/05/21 01:47:33;;;;;;;7.85;5.00;;;;;;;;;;5033083;28;20381;-69
2023/05/21 01:50:00;;;;;;;7.32;5.18;;;;;;;;;;5032411;28;20076;-69
2023/05/21 01:52:26;;;;;;;8.68;5.18;;;;;;;;;;5015144;28;20091;-69
2023/05/21 01:54:53;;;;;;;8.27;5.30;;;;;;;;;;5032881;28;20044;-70
2023/05/21 01:57:19;;;;;;;9.23;5.63;;;;;;;;;;5032897;28;20049;-69
2023/05/21 01:59:46;;;;;;;11.07;5.45;;;;;;;;;;5032460;28;20049;-70
2023/05/21 02:02:12;;;;;;;8.27;5.07;;;;;;;;;;5031403;28;20077;-69
2023/05/21 02:04:42;;;;;;;9.63;5.43;;;;;;;;;;5032431;28;20057;-70
2023/05/21 02:07:09;;;;;;;9.60;5.45;;;;;;;;;;5031385;28;20049;-70
2023/05/21 02:09:35;;;;;;;9.65;5.43;;;;;;;;;;5031524;28;20411;-69
2023/05/21 02:12:02;;;;;;;9.80;6.18;;;;;;;;;;5032654;28;20050;-69
2023/05/21 02:14:28;;;;;;;9.30;5.60;;;;;;;;;;5032555;28;20148;-69
2023/05/21 02:16:55;;;;;;;8.85;5.38;;;;;;;;;;5032243;28;20068;-69
2023/05/21 02:19:21;;;;;;;11.00;5.63;;;;;;;;;;5032536;28;20041;-69
2023/05/21 02:21:47;;;;;;;10.65;5.25;;;;;;;;;;5014627;28;20041;-69
2023/05/21 02:24:13;;;;;;;11.27;5.95;;;;;;;;;;5032358;28;20052;-69
2023/05/21 02:26:39;;;;;;;8.80;5.80;;;;;;;;;;5032329;28;20203;-69
2023/05/21 02:29:05;;;;;;;8.57;5.57;;;;;;;;;;5032172;28;20085;-69
2023/05/21 02:31:31;;;;;;;11.27;5.60;;;;;;;;;;5032566;28;20131;-69
2023/05/21 02:33:57;;;;;;;10.80;5.25;;;;;;;;;;5031676;28;20037;-70
2023/05/21 02:36:24;;;;;;;9.90;5.60;;;;;;;;;;5031207;28;20133;-70
2023/05/21 02:38:50;;;;;;;8.38;5.40;;;;;;;;;;5014917;28;20066;-69
2023/05/21 02:41:16;;;;;;;10.68;5.43;;;;;;;;;;5032079;28;20057;-69
2023/05/21 02:43:42;;;;;;;8.57;5.50;;;;;;;;;;5032114;28;20048;-69
2023/05/21 02:46:08;;;;;;;8.40;5.40;;;;;;;;;;5031760;28;20081;-69
2023/05/21 02:48:34;;;;;;;8.80;5.55;;;;;;;;;;5031278;28;20045;-69
2023/05/21 02:51:00;;;;;;;11.45;6.13;;;;;;;;;;5014100;28;20053;-69
2023/05/21 02:53:26;;;;;;;9.23;5.60;;;;;;;;;;5030626;28;20099;-70
2023/05/21 02:55:52;;;;;;;10.20;5.90;;;;;;;;;;5031738;28;20053;-69
2023/05/21 02:58:20;;;;;;;8.43;5.47;;;;;;;;;;5031815;28;20053;-70
2023/05/21 03:00:46;;;;;;;8.98;5.30;;;;;;;;;;5031035;28;20053;-69
2023/05/21 03:03:12;;;;;;;8.85;5.50;;;;;;;;;;5031347;28;20042;-69
2023/05/21 03:05:38;;;;;;;9.93;6.05;;;;;;;;;;5033089;28;20056;-69
2023/05/21 03:08:04;;;;;;;9.00;6.07;;;;;;;;;;5035805;28;20052;-69
2023/05/21 03:10:30;;;;;;;8.68;5.80;;;;;;;;;;5035417;28;20045;-69
2023/05/21 03:12:56;;;;;;;12.35;6.57;;;;;;;;;;5018042;28;20041;-69
2023/05/21 03:15:22;;;;;;;14.45;6.22;;;;;;;;;;5034322;28;20128;-69
2023/05/21 03:17:49;;;;;;;11.02;6.18;;;;;;;;;;5017930;28;20041;-69
2023/05/21 03:20:17;;;;;;;12.10;6.55;;;;;;;;;;5035672;28;20049;-69
2023/05/21 03:22:43;;;;;;;10.93;6.18;;;;;;;;;;5035779;28;20050;-69
2023/05/21 03:25:10;;;;;;;12.40;6.18;;;;;;;;;;5035558;28;20042;-69
2023/05/21 03:27:37;;;;;;;12.70;5.97;;;;;;;;;;5035577;28;20057;-69
2023/05/21 03:30:03;;;;;;;11.88;6.25;;;;;;;;;;5034259;28;20100;-69
2023/05/21 03:32:29;;;;;;;11.75;6.15;;;;;;;;;;5035844;28;20076;-70
2023/05/21 03:34:55;;;;;;;12.20;6.20;;;;;;;;;;5035491;28;20136;-69
2023/05/21 03:37:21;;;;;;;12.80;5.93;;;;;;;;;;5035353;28;20041;-69
2023/05/21 03:39:47;;;;;;;11.85;5.93;;;;;;;;;;5016969;28;20052;-69
2023/05/21 03:42:13;;;;;;;9.82;5.50;;;;;;;;;;5035336;28;20478;-69
2023/05/21 03:44:39;;;;;;;10.02;5.47;;;;;;;;;;5017241;28;20049;-69
2023/05/21 03:47:05;;;;;;;12.20;6.00;;;;;;;;;;5035390;28;20046;-69
2023/05/21 03:49:31;;;;;;;12.02;5.75;;;;;;;;;;5017397;28;20049;-69
2023/05/21 03:51:57;;;;;;;14.20;6.30;;;;;;;;;;5035170;28;20053;-69
2023/05/21 03:54:23;;;;;;;13.48;6.57;;;;;;;;;;5034879;28;20045;-69
2023/05/21 03:56:49;;;;;;;9.32;6.22;;;;;;;;;;5034718;28;20045;-69
2023/05/21 03:59:15;;;;;;;11.45;5.88;;;;;;;;;;5034750;28;20145;-70
2023/05/21 04:01:42;;;;;;;10.73;5.80;;;;;;;;;;5034565;28;20052;-69
2023/05/21 04:04:08;;;;;;;9.80;5.70;;;;;;;;;;5034627;28;20146;-69
2023/05/21 04:06:34;;;;;;;12.55;6.05;;;;;;;;;;5035293;28;20470;-69
2023/05/21 04:09:00;;;;;;;9.90;5.95;;;;;;;;;;5034556;28;20195;-70
2023/05/21 04:11:26;;;;;;;12.20;5.78;;;;;;;;;;5034921;28;20138;-69
2023/05/21 04:13:52;;;;;;;16.45;6.00;;;;;;;;;;5034620;28;20175;-69
2023/05/21 04:16:18;;;;;;;10.40;5.07;;;;;;;;;;5034343;28;20099;-69
2023/05/21 04:18:45;;;;;;;9.48;5.38;;;;;;;;;;5032768;28;20080;-69
2023/05/21 04:21:11;;;;;;;10.18;5.40;;;;;;;;;;5032647;28;20099;-69
2023/05/21 04:23:37;;;;;;;10.88;5.28;;;;;;;;;;5033781;28;20081;-69
2023/05/21 04:26:03;;;;;;;11.75;5.47;;;;;;;;;;5034459;28;20049;-69
2023/05/21 04:28:29;;;;;;;14.02;5.72;;;;;;;;;;5016836;28;20056;-69
2023/05/21 04:30:55;;;;;;;10.95;5.00;;;;;;;;;;5016676;28;20064;-69
2023/05/21 04:33:23;;;;;;;10.45;5.35;;;;;;;;;;5034591;28;20041;-69
2023/05/21 04:35:52;;;;;;;11.50;5.30;;;;;;;;;;5034126;28;20091;-70
2023/05/21 04:38:18;;;;;;;12.02;5.57;;;;;;;;;;5034499;28;20049;-69
2023/05/21 04:40:52;;;;;;;10.38;5.10;;;;;;;;;;5032870;28;20139;-69
2023/05/21 04:43:24;;;;;;;9.55;4.90;;;;;;;;;;5034292;28;20045;-70
2023/05/21 04:45:50;;;;;;;12.57;5.00;;;;;;;;;;5034269;28;20187;-69
2023/05/21 04:48:17;;;;;;;10.35;5.05;;;;;;;;;;5034104;28;20049;-69
2023/05/21 04:50:43;;;;;;;8.77;4.88;;;;;;;;;;5033751;28;20072;-69
2023/05/21 04:53:10;;;;;;;9.02;4.85;;;;;;;;;;5016490;28;20132;-70
2023/05/21 04:55:38;;;;;;;10.88;5.25;;;;;;;;;;5033809;28;20425;-70
2023/05/21 04:58:05;;;;;;;10.35;4.55;;;;;;;;;;5015635;28;20128;-70
2023/05/21 05:00:32;;;;;;;9.23;4.65;;;;;;;;;;5015431;28;20059;-69
2023/05/21 05:02:58;;;;;;;9.50;4.38;;;;;;;;;;5015577;28;20043;-70
2023/05/21 05:05:24;;;;;;;8.95;4.75;;;;;;;;;;5033505;28;20057;-69
2023/05/21 05:07:50;;;;;;;8.85;4.65;;;;;;;;;;5033516;28;20454;-70
2023/05/21 05:10:16;;;;;;;8.70;4.47;;;;;;;;;;5033446;28;20129;-69
2023/05/21 05:12:42;;;;;;;9.25;4.80;;;;;;;;;;5033611;28;20467;-69
2023/05/21 05:15:08;;;;;;;9.77;4.70;;;;;;;;;;5033542;28;20132;-69
2023/05/21 05:17:35;;;;;;;10.48;5.05;;;;;;;;;;5033642;28;20430;-69
2023/05/21 05:20:01;;;;;;;8.40;4.47;;;;;;;;;;5033482;28;20419;-69
2023/05/21 05:22:27;;;;;;;9.80;3.88;;;;;;;;;;5033478;28;20041;-70
2023/05/21 05:24:53;;;;;;;7.80;4.28;;;;;;;;;;5015156;28;20392;-69
2023/05/21 05:27:19;;;;;;;10.32;4.65;;;;;;;;;;5030779;28;20052;-69
2023/05/21 05:29:45;;;;;;;12.43;4.43;;;;;;;;;;5032753;28;20057;-70
2023/05/21 05:32:11;;;;;;;10.95;4.60;;;;;;;;;;5015573;28;20041;-70
2023/05/21 05:34:37;;;;;;;8.82;4.85;;;;;;;;;;5033021;28;20045;-70
2023/05/21 05:37:03;;;;;;;10.88;4.93;;;;;;;;;;5032243;28;20352;-69
2023/05/21 05:39:29;;;;;;;8.93;4.22;;;;;;;;;;5032919;28;20046;-69
2023/05/21 05:41:55;;;;;;;8.07;4.35;;;;;;;;;;5015814;28;20453;-69
2023/05/21 05:44:24;;;;;;;8.15;4.35;;;;;;;;;;5032757;28;20465;-69
2023/05/21 05:46:50;;;;;;;9.63;4.60;;;;;;;;;;5033299;28;20049;-69
2023/05/21 05:49:16;;;;;;;11.70;4.78;;;;;;;;;;5032887;28;20512;-70
2023/05/21 05:51:43;;;;;;;8.75;4.60;;;;;;;;;;5031757;28;20085;-70
2023/05/21 05:54:09;;;;;;;9.70;4.30;;;;;;;;;;5032483;28;20069;-70
2023/05/21 05:56:35;;;;;;;8.80;4.53;;;;;;;;;;5015176;28;20045;-70
2023/05/21 05:59:01;;;;;;;8.38;4.45;;;;;;;;;;5032759;28;20557;-70
2023/05/21 06:01:27;;;;;;;7.88;4.32;;;;;;;;;;5014735;28;20087;-70
2023/05/21 06:03:53;;;;;;;11.13;4.80;;;;;;;;;;5031282;28;20442;-70
2023/05/21 06:06:19;;;;;;;8.65;4.70;;;;;;;;;;5032759;28;20056;-70
2023/05/21 06:08:45;;;;;;;8.20;4.15;;;;;;;;;;5031310;28;20162;-69
2023/05/21 06:11:11;;;;;;;10.52;4.97;;;;;;;;;;5031471;28;20128;-69
2023/05/21 06:13:37;;;;;;;11.40;4.18;;;;;;;;;;5030325;28;20056;-69
2023/05/21 06:16:03;;;;;;;7.85;4.30;;;;;;;;;;5014446;28;20049;-69
2023/05/21 06:18:30;;;;;;;8.13;4.22;;;;;;;;;;5043875;28;20551;-70
2023/05/21 06:20:56;;;;;;;8.15;3.80;;;;;;;;;;5044423;28;20033;-68
2023/05/21 06:23:22;;;;;;;8.18;4.20;;;;;;;;;;5046959;28;20044;-70
2023/05/21 06:25:48;;;;;;;9.70;4.30;;;;;;;;;;5031181;28;20060;-69
2023/05/21 06:28:14;;;;;;;8.38;4.13;;;;;;;;;;5030407;28;20042;-69
2023/05/21 06:30:40;;;;;;;8.52;4.47;;;;;;;;;;5032023;28;20053;-69
2023/05/21 06:33:06;;;;;;;10.70;4.53;;;;;;;;;;5032365;28;20116;-69
2023/05/21 06:35:35;;;;;;;9.30;4.50;;;;;;;;;;5031802;28;20046;-69
2023/05/21 06:38:01;;;;;;;8.50;4.50;;;;;;;;;;5030611;28;20083;-69
2023/05/21 06:40:28;;;;;;;8.05;4.30;;;;;;;;;;5013876;28;20136;-69
2023/05/21 06:42:55;;;;;;;8.50;4.78;;;;;;;;;;5013854;28;20107;-70
2023/05/21 06:45:21;;;;;;;10.27;4.68;;;;;;;;;;5030145;28;20132;-69
2023/05/21 06:47:47;;;;;;;8.40;4.75;;;;;;;;;;5037717;28;20083;-69
2023/05/21 06:50:13;;;;;;;8.93;4.40;;;;;;;;;;5050118;28;20041;-70
2023/05/21 06:52:39;;;;;;;9.38;4.40;;;;;;;;;;5030188;28;20088;-69
2023/05/21 06:55:05;;;;;;;12.07;4.72;;;;;;;;;;5031823;28;20502;-70
2023/05/21 06:57:31;;;;;;;12.18;5.00;;;;;;;;;;5014207;28;20048;-69
2023/05/21 06:59:58;;;;;;;10.40;4.90;;;;;;;;;;5013581;28;20045;-69
2023/05/21 07:02:25;;;;;;;8.20;4.28;;;;;;;;;;5031552;28;20487;-69
2023/05/21 07:04:52;;;;;;;10.25;4.75;;;;;;;;;;5013249;28;20101;-69
2023/05/21 07:07:18;;;;;;;11.00;4.72;;;;;;;;;;5016095;28;20052;-69
2023/05/21 07:09:44;;;;;;;9.77;4.45;;;;;;;;;;5031322;28;20037;-69
2023/05/21 07:12:10;;;;;;;10.93;4.40;;;;;;;;;;5031528;28;20351;-70
2023/05/21 07:14:36;;;;;;;9.38;4.50;;;;;;;;;;5030603;28;20116;-69
2023/05/21 07:17:02;;;;;;;9.48;4.60;;;;;;;;;;5011950;28;20084;-69
2023/05/21 07:19:28;;;;;;;11.02;4.72;;;;;;;;;;5024833;28;20052;-69
2023/05/21 07:21:55;;;;;;;9.73;4.70;;;;;;;;;;5051897;28;20037;-69
2023/05/21 07:24:21;;;;;;;10.38;4.43;;;;;;;;;;5033349;28;20431;-70
2023/05/21 07:26:47;;;;;;;9.68;4.22;;;;;;;;;;5013822;28;20041;-70
2023/05/21 07:29:13;;;;;;;10.05;4.28;;;;;;;;;;5031560;28;20077;-70
2023/05/21 07:31:39;;;;;;;10.63;4.40;;;;;;;;;;5014042;28;20049;-70
2023/05/21 07:34:05;;;;;;;9.45;4.30;;;;;;;;;;5030522;28;20091;-70
2023/05/21 07:36:32;;;;;;;7.70;4.03;;;;;;;;;;5040772;28;20119;-70
2023/05/21 07:38:59;;;;;;;8.02;3.78;;;;;;;;;;5029871;28;20045;-70
2023/05/21 07:41:25;;;;;;;9.35;3.80;;;;;;;;;;5031328;28;20084;-70
2023/05/21 07:43:51;;;;;;;6.80;3.47;;;;;;;;;;5031335;28;20053;-70
2023/05/21 07:46:17;;;;;;;6.93;3.60;;;;;;;;;;5031254;28;20048;-70
2023/05/21 07:48:43;;;;;;;9.98;4.13;;;;;;;;;;5031714;28;20072;-70
2023/05/21 07:51:09;;;;;;;9.63;3.88;;;;;;;;;;5034818;28;20049;-70
2023/05/21 07:53:35;;;;;;;13.13;4.10;;;;;;;;;;5033473;28;20055;-70
2023/05/21 07:56:01;;;;;;;7.85;3.90;;;;;;;;;;5034719;28;20356;-70
2023/05/21 07:58:31;;;;;;;9.90;4.38;;;;;;;;;;5035127;28;20049;-70
2023/05/21 08:00:57;;;;;;;10.95;4.30;;;;;;;;;;5034484;28;20053;-70
2023/05/21 08:03:23;;;;;;;6.70;3.63;;;;;;;;;;5034559;28;20053;-70
2023/05/21 08:05:49;;;;;;;9.32;3.70;;;;;;;;;;5016728;28;20062;-69
2023/05/21 08:08:16;;;;;;;9.02;3.75;;;;;;;;;;5016885;28;20049;-70
2023/05/21 08:10:42;;;;;;;9.60;3.92;;;;;;;;;;5016609;28;20152;-70
2023/05/21 08:13:09;;;;;;;6.35;3.80;;;;;;;;;;5035029;28;20410;-71
2023/05/21 08:15:35;;;;;;;8.07;4.00;;;;;;;;;;5017088;28;20409;-70
2023/05/21 08:18:01;;;;;;;7.45;3.90;;;;;;;;;;5016628;28;20486;-70
2023/05/21 08:20:29;;;;;;;12.80;4.25;;;;;;;;;;5034480;28;20071;-70
2023/05/21 08:22:55;;;;;;;11.00;4.50;;;;;;;;;;5034764;28;20045;-70
2023/05/21 08:25:22;;;;;;;8.57;3.85;;;;;;;;;;5033851;28;20041;-70
2023/05/21 08:27:48;;;;;;;9.75;4.10;;;;;;;;;;5034023;28;20038;-70
2023/05/21 08:30:14;;;;;;;8.60;3.80;;;;;;;;;;5033811;28;20105;-70
2023/05/21 08:32:40;;;;;;;9.35;4.18;;;;;;;;;;5034287;28;20042;-69
2023/05/21 08:35:07;;;;;;;9.10;3.72;;;;;;;;;;5034254;28;20410;-70
2023/05/21 08:37:33;;;;;;;7.57;3.50;;;;;;;;;;5034040;28;20457;-70
2023/05/21 08:39:59;;;;;;;8.32;3.80;;;;;;;;;;5033733;28;20041;-70
2023/05/21 08:42:40;;;;;;;7.90;3.90;;;;;;;;;;5033083;28;20187;-70
2023/05/21 08:45:07;;;;;;;12.88;3.88;;;;;;;;;;5031247;28;20057;-70
2023/05/21 08:47:34;;;;;;;7.85;3.97;;;;;;;;;;5048423;28;20045;-70
2023/05/21 08:50:01;;;;;;;9.20;4.18;;;;;;;;;;5028924;28;20041;-70
2023/05/21 08:52:27;;;;;;;10.75;3.92;;;;;;;;;;5033425;28;20033;-70
2023/05/21 08:54:54;;;;;;;11.38;4.10;;;;;;;;;;5033602;28;20601;-71
2023/05/21 08:57:22;;;;;;;7.65;3.95;;;;;;;;;;5033652;28;20393;-70
2023/05/21 08:59:48;;;;;;;7.07;3.67;;;;;;;;;;5032423;28;20126;-68
2023/05/21 09:02:17;;;;;;;6.82;3.47;;;;;;;;;;5032122;28;20041;-68
2023/05/21 09:04:48;;;;;;;8.20;3.60;;;;;;;;;;5015216;28;20058;-68
2023/05/21 09:07:14;;;;;;;7.50;3.80;;;;;;;;;;5033666;28;20406;-68
2023/05/21 09:09:56;;;;;;;6.45;3.38;;;;;;;;;;5032486;28;20047;-68
2023/05/21 09:12:22;;;;;;;12.07;4.15;;;;;;;;;;5033830;28;20049;-68
2023/05/21 09:14:48;;;;;;;8.52;3.92;;;;;;;;;;5033904;28;20430;-68
2023/05/21 09:17:15;;;;;;;9.63;3.80;;;;;;;;;;5033910;28;20128;-68
2023/05/21 09:19:59;;;;;;;8.10;3.75;;;;;;;;;;5033056;28;20448;-68
2023/05/21 09:22:25;;;;;;;9.68;3.60;;;;;;;;;;5049079;28;20493;-68
2023/05/21 09:24:51;;;;;;;6.78;3.50;;;;;;;;;;5039230;28;20041;-68
2023/05/21 09:27:18;;;;;;;8.50;3.33;;;;;;;;;;5053690;28;20095;-68
2023/05/21 09:29:44;;;;;;;7.18;3.63;;;;;;;;;;5053046;28;20086;-68
2023/05/21 09:32:11;;;;;;;8.60;3.47;;;;;;;;;;5052300;28;20045;-68
2023/05/21 09:34:37;;;;;;;11.60;3.95;;;;;;;;;;5052006;28;20052;-68
2023/05/21 09:37:03;;;;;;;7.70;3.50;;;;;;;;;;5033446;28;20041;-69
2023/05/21 09:39:29;;;;;;;6.22;3.50;;;;;;;;;;5032906;28;20124;-68
2023/05/21 09:41:56;;;;;;;7.85;3.88;;;;;;;;;;5031576;28;20041;-68
2023/05/21 09:44:23;;;;;;;9.10;3.67;;;;;;;;;;5030931;28;20041;-69
2023/05/21 09:46:49;;;;;;;6.43;3.40;;;;;;;;;;5031993;28;20049;-68
2023/05/21 09:49:25;;;;;;;7.05;3.53;;;;;;;;;;5031392;28;20037;-68
2023/05/21 09:51:57;;;;;;;8.02;3.35;;;;;;;;;;5032470;28;20449;-68
2023/05/21 09:54:24;;;;;;;8.25;3.40;;;;;;;;;;5032214;28;20133;-68
2023/05/21 09:56:54;;;;;;;6.88;3.40;;;;;;;;;;5026728;28;20120;-68
2023/05/21 09:59:20;;;;;;;6.22;3.28;;;;;;;;;;5016648;28;20128;-68
2023/05/21 10:01:49;;;;;;;8.75;3.70;;;;;;;;;;5030597;28;20052;-69
2023/05/21 10:04:16;;;;;;;9.40;3.67;;;;;;;;;;5029783;28;20104;-68
2023/05/21 10:06:42;;;;;;;7.50;3.40;;;;;;;;;;5032407;28;20061;-68
2023/05/21 10:09:14;;;;;;;6.85;3.83;;;;;;;;;;5032188;28;20120;-68
2023/05/21 10:11:41;;;;;;;11.15;3.58;;;;;;;;;;5032507;28;20073;-69
2023/05/21 10:14:09;;;;;;;7.00;3.47;;;;;;;;;;5032445;28;20069;-68
2023/05/21 10:16:36;;;;;;;9.38;3.47;;;;;;;;;;5032832;28;20239;-68
2023/05/21 10:19:04;;;;;;;8.18;3.65;;;;;;;;;;5031803;28;20045;-69
2023/05/21 10:21:30;;;;;;;6.18;3.40;;;;;;;;;;5013619;28;20095;-68
2023/05/21 10:23:56;;;;;;;9.25;3.53;;;;;;;;;;5031923;28;20124;-68
2023/05/21 10:26:23;;;;;;;6.75;3.28;;;;;;;;;;5051291;28;20053;-69
2023/05/21 10:28:54;;;;;;;6.32;3.33;;;;;;;;;;5051084;28;20099;-69
2023/05/21 10:31:20;;;;;;;7.13;3.25;;;;;;;;;;5031141;28;20041;-69
2023/05/21 10:33:46;;;;;;;8.73;3.40;;;;;;;;;;5032556;28;20037;-69
2023/05/21 10:36:13;;;;;;;5.97;2.90;;;;;;;;;;5029844;28;20095;-69
2023/05/21 10:38:40;;;;;;;8.10;3.10;;;;;;;;;;5031601;28;20045;-69
2023/05/21 10:41:06;;;;;;;5.57;2.92;;;;;;;;;;5031351;28;20150;-70
2023/05/21 10:43:38;;;;;;;6.47;2.85;;;;;;;;;;5029974;28;20045;-69
2023/05/21 10:46:13;;;;;;;6.15;3.33;;;;;;;;;;5030295;28;20111;-69
2023/05/21 10:48:52;;;;;;;8.63;3.53;;;;;;;;;;5031781;28;20120;-69
2023/05/21 10:51:18;;;;;;;5.88;3.15;;;;;;;;;;5033594;28;20116;-69
2023/05/21 10:53:54;;;;;;;8.35;3.40;;;;;;;;;;5032832;28;20042;-69
2023/05/21 10:56:20;;;;;;;;;;;;;;;;;;5032905;28;20045;-70
2023/05/21 10:58:55;;;;;;;8.23;3.35;;;;;;;;;;5032058;28;19963;-71
2023/05/21 11:01:22;;;;;;;7.65;3.50;;;;;;;;;;5031354;28;20064;-71
2023/05/21 11:03:49;;;;;;;8.00;3.10;;;;;;;;;;5030367;28;20092;-70
2023/05/21 11:06:24;;;;;;;6.43;3.40;;;;;;;;;;5030798;28;20107;-70
2023/05/21 11:08:52;;;;;;;8.05;3.60;;;;;;;;;;5031091;28;20557;-70
2023/05/21 11:11:37;;;;;;;7.80;3.50;;;;;;;;;;4996743;28;20045;-71
2023/05/21 11:14:23;;;;;;;6.55;3.40;;;;;;;;;;5030862;28;20085;-70
2023/05/21 11:16:50;;;;;;;9.38;3.25;;;;;;;;;;5022368;28;20045;-70
2023/05/21 11:19:16;;;;;;;6.85;3.35;;;;;;;;;;5031386;28;20061;-70
2023/05/21 11:21:42;;;;;;;8.70;3.47;;;;;;;;;;5029283;28;20406;-69
2023/05/21 11:24:09;;;;;;;9.82;3.30;;;;;;;;;;5031661;28;20053;-69
2023/05/21 11:27:05;;;;;;;9.15;3.88;;;;;;;;;;5035481;28;20473;-70
2023/05/21 11:29:39;;;;;;;9.63;3.33;;;;;;;;;;5008883;28;20103;-70
2023/05/21 11:32:07;;;;;;;6.60;3.40;;;;;;;;;;5034347;28;20054;-70
2023/05/21 11:34:44;;;;;;;8.88;3.75;;;;;;;;;;5018123;28;20050;-71
2023/05/21 11:37:17;;;;;;;6.70;3.60;;;;;;;;;;5034946;28;20045;-69
2023/05/21 11:39:43;;;;;;;7.07;3.45;;;;;;;;;;5033376;28;20045;-69
2023/05/21 11:42:09;;;;;;;9.80;3.65;;;;;;;;;;5015949;28;20091;-70
2023/05/21 11:44:39;;;;;;;11.80;3.80;;;;;;;;;;5034998;28;20085;-69
2023/05/21 11:47:05;;;;;;;6.85;3.55;;;;;;;;;;5034634;28;20049;-69
2023/05/21 11:49:32;;;;;;;9.32;3.92;;;;;;;;;;5034035;28;20482;-69
2023/05/21 11:52:00;;;;;;;7.35;4.00;;;;;;;;;;5034799;28;20045;-69
2023/05/21 11:54:26;;;;;;;7.05;3.80;;;;;;;;;;5034274;28;20049;-69
2023/05/21 11:56:53;;;;;;;8.18;3.90;;;;;;;;;;5031985;28;20069;-69
2023/05/21 11:59:20;;;;;;;9.73;3.58;;;;;;;;;;5035215;28;20367;-68
2023/05/21 12:01:46;;;;;;;8.02;3.78;;;;;;;;;;5034873;28;20450;-69
2023/05/21 12:04:12;;;;;;;7.70;4.43;;;;;;;;;;5034638;28;20132;-69
2023/05/21 12:06:41;;;;;;;9.05;4.40;;;;;;;;;;5034554;28;20190;-70
2023/05/21 12:09:08;;;;;;;8.68;4.68;;;;;;;;;;5035048;28;20084;-70
2023/05/21 12:11:35;;;;;;;12.13;5.40;;;;;;;;;;5033759;28;20086;-70
2023/05/21 12:14:01;;;;;;;8.05;4.80;;;;;;;;;;5043545;28;20036;-71
2023/05/21 12:16:27;;;;;;;10.48;5.50;;;;;;;;;;5033592;28;20041;-71
2023/05/21 12:18:53;;;;;;;9.13;4.78;;;;;;;;;;5031684;28;20085;-71
2023/05/21 12:21:19;;;;;;;9.10;5.28;;;;;;;;;;5015396;28;20077;-71
2023/05/21 12:23:46;;;;;;;8.10;4.80;;;;;;;;;;5034867;28;20528;-70
2023/05/21 12:26:12;;;;;;;10.40;5.07;;;;;;;;;;5034604;28;20152;-71
2023/05/21 12:28:39;;;;;;;9.15;5.20;;;;;;;;;;5034569;28;20082;-71
2023/05/21 12:31:05;;;;;;;10.25;5.13;;;;;;;;;;5033410;28;20517;-71
2023/05/21 12:33:34;;;;;;;9.70;5.30;;;;;;;;;;5032885;28;20045;-71
2023/05/21 12:36:02;;;;;;;10.85;6.00;;;;;;;;;;5032539;28;20052;-70
2023/05/21 12:38:31;;;;;;;8.50;5.57;;;;;;;;;;5033003;28;20060;-71
2023/05/21 12:41:03;;;;;;;9.98;5.72;;;;;;;;;;5032565;28;20083;-71
2023/05/21 12:43:32;;;;;;;10.98;6.00;;;;;;;;;;5034564;28;20041;-71
2023/05/21 12:45:58;;;;;;;9.70;5.15;;;;;;;;;;5033972;28;20045;-70
2023/05/21 12:48:24;;;;;;;11.52;5.78;;;;;;;;;;5034086;28;20087;-70
2023/05/21 12:50:51;;;;;;;13.68;5.70;;;;;;;;;;5033854;28;20072;-70
2023/05/21 12:53:17;;;;;;;11.20;6.00;;;;;;;;;;5016450;28;20122;-70
2023/05/21 12:55:43;;;;;;;11.68;5.72;;;;;;;;;;5032785;28;20360;-70
2023/05/21 12:58:12;;;;;;;12.68;6.60;;;;;;;;;;5033706;28;20106;-71
2023/05/21 13:00:40;;;;;;;11.38;5.97;;;;;;;;;;5031914;28;20046;-71
2023/05/21 13:03:06;;;;;;;13.27;6.47;;;;;;;;;;5032133;28;20048;-71
2023/05/21 13:05:33;;;;;;;12.25;6.07;;;;;;;;;;4997930;28;20065;-70
2023/05/21 13:07:59;;;;;;;14.88;6.30;;;;;;;;;;5034051;28;20044;-71
2023/05/21 13:10:25;;;;;;;10.45;5.60;;;;;;;;;;5033390;28;20061;-70
2023/05/21 13:12:51;;;;;;;11.77;7.20;;;;;;;;;;5033796;28;20041;-70
2023/05/21 13:15:17;;;;;;;10.32;6.25;;;;;;;;;;5033513;28;20120;-71
2023/05/21 13:17:43;;;;;;;13.23;6.82;;;;;;;;;;5000070;28;20034;-71
2023/05/21 13:20:17;;;;;;;11.82;7.40;;;;;;;;;;5032130;28;20371;-70
2023/05/21 13:22:47;;;;;;;10.25;6.43;;;;;;;;;;5033700;28;20128;-71
2023/05/21 13:25:19;;;;;;;11.98;6.90;;;;;;;;;;5031977;28;20057;-71
2023/05/21 13:27:45;;;;;;;12.82;6.28;;;;;;;;;;5033613;28;20120;-71
2023/05/21 13:30:11;;;;;;;14.93;6.70;;;;;;;;;;5015365;28;20041;-71
2023/05/21 13:32:38;;;;;;;10.15;6.80;;;;;;;;;;5033540;28;20128;-71
2023/05/21 13:35:04;;;;;;;13.40;6.90;;;;;;;;;;5032431;28;20042;-72
2023/05/21 13:37:31;;;;;;;12.77;7.45;;;;;;;;;;5015514;28;20064;-71
2023/05/21 13:39:57;;;;;;;14.60;7.95;;;;;;;;;;5031887;28;20124;-71
2023/05/21 13:42:23;;;;;;;13.82;7.50;;;;;;;;;;5015197;28;20052;-71
2023/05/21 13:44:49;;;;;;;14.63;8.07;;;;;;;;;;5012944;28;20041;-71
2023/05/21 13:47:15;;;;;;;14.18;7.93;;;;;;;;;;5032437;28;20045;-71
2023/05/21 13:49:42;;;;;;;13.57;8.13;;;;;;;;;;5033135;28;20094;-71
2023/05/21 13:52:08;;;;;;;17.40;8.85;;;;;;;;;;5033042;28;20045;-71
2023/05/21 13:54:35;;;;;;;14.77;8.73;;;;;;;;;;5015199;28;20484;-71
2023/05/21 13:57:01;;;;;;;15.45;8.65;;;;;;;;;;5032936;28;20138;-71
2023/05/21 13:59:27;;;;;;;17.45;8.88;;;;;;;;;;5032514;28;20045;-71
2023/05/21 14:01:53;;;;;;;14.27;8.05;;;;;;;;;;5032292;28;20045;-71
2023/05/21 14:04:20;;;;;;;16.67;8.43;;;;;;;;;;5032825;28;20076;-71
2023/05/21 14:06:46;;;;;;;15.48;8.45;;;;;;;;;;5032206;28;20053;-71
2023/05/21 14:09:12;;;;;;;11.93;8.40;;;;;;;;;;5032143;28;20077;-71
2023/05/21 14:11:38;;;;;;;15.60;7.80;;;;;;;;;;5032598;28;20084;-71
2023/05/21 14:14:05;;;;;;;15.52;7.90;;;;;;;;;;5032852;28;20041;-71
2023/05/21 14:16:31;;;;;;;13.40;7.85;;;;;;;;;;5032443;28;20103;-71
2023/05/21 14:18:57;;;;;;;15.15;8.02;;;;;;;;;;5032343;28;20153;-71
2023/05/21 14:21:25;;;;;;;14.60;8.50;;;;;;;;;;5032622;28;20081;-70
2023/05/21 14:23:51;;;;;;;12.05;8.38;;;;;;;;;;5031201;28;20049;-71
2023/05/21 14:26:17;;;;;;;14.52;9.63;;;;;;;;;;5032317;28;20210;-71
2023/05/21 14:28:45;;;;;;;13.65;8.52;;;;;;;;;;5031355;28;20049;-70
2023/05/21 14:31:11;;;;;;;14.82;9.13;;;;;;;;;;5031023;28;20501;-71
2023/05/21 14:33:37;;;;;;;14.13;8.13;;;;;;;;;;5030513;28;20041;-71
2023/05/21 14:36:04;;;;;;;13.90;9.10;;;;;;;;;;5030900;28;20061;-71
2023/05/21 14:38:31;;;;;;;15.73;9.90;;;;;;;;;;5032609;28;20042;-71